sensor_id;sensor_type;location;lat;lon;timestamp;pressure;altitude;pressure_sealevel;temperature;humidity
74329;BME280;62749;51.982;5.916;2023-04-15T00:02:22;100640.25;;;9.94;56.49
74329;BME280;62749;51.982;5.916;2023-04-15T00:04:51;100639.63;;;9.87;56.61
74329;BME280;62749;51.982;5.916;2023-04-15T00:07:21;100639.56;;;9.89;56.52
74329;BME280;62749;51.982;5.916;2023-04-15T00:09:50;100644.00;;;9.88;56.74
74329;BME280;62749;51.982;5.916;2023-04-15T00:12:23;100639.56;;;9.89;56.56
74329;BME280;62749;51.982;5.916;2023-04-15T00:14:55;100637.06;;;9.86;57.40
74329;BME280;62749;51.982;5.916;2023-04-15T00:17:24;100645.97;;;9.83;57.09
74329;BME280;62749;51.982;5.916;2023-04-15T00:19:54;100640.69;;;9.83;57.79
74329;BME280;62749;51.982;5.916;2023-04-15T00:22:25;100645.22;;;9.79;57.60
74329;BME280;62749;51.982;5.916;2023-04-15T00:24:54;100639.84;;;9.82;57.70
74329;BME280;62749;51.982;5.916;2023-04-15T00:27:24;100639.84;;;9.82;57.51
74329;BME280;62749;51.982;5.916;2023-04-15T00:29:56;100630.41;;;9.77;57.66
74329;BME280;62749;51.982;5.916;2023-04-15T00:32:26;100643.63;;;9.75;58.21
74329;BME280;62749;51.982;5.916;2023-04-15T00:34:55;100645.31;;;9.78;57.94
74329;BME280;62749;51.982;5.916;2023-04-15T00:37:24;100643.81;;;9.71;58.41
74329;BME280;62749;51.982;5.916;2023-04-15T00:39:54;100647.34;;;9.71;58.44
74329;BME280;62749;51.982;5.916;2023-04-15T00:42:24;100629.78;;;9.48;58.84
74329;BME280;62749;51.982;5.916;2023-04-15T00:44:57;100638.09;;;9.61;59.03
74329;BME280;62749;51.982;5.916;2023-04-15T00:47:28;100640.88;;;9.56;59.53
74329;BME280;62749;51.982;5.916;2023-04-15T00:49:58;100645.84;;;9.64;59.55
74329;BME280;62749;51.982;5.916;2023-04-15T00:52:27;100629.38;;;9.59;59.51
74329;BME280;62749;51.982;5.916;2023-04-15T00:54:57;100643.47;;;9.58;59.86
74329;BME280;62749;51.982;5.916;2023-04-15T00:57:27;100633.22;;;9.50;60.11
74329;BME280;62749;51.982;5.916;2023-04-15T00:59:59;100639.63;;;9.44;60.13
74329;BME280;62749;51.982;5.916;2023-04-15T01:02:30;100644.50;;;9.54;60.58
74329;BME280;62749;51.982;5.916;2023-04-15T01:05:00;100641.44;;;9.42;60.94
74329;BME280;62749;51.982;5.916;2023-04-15T01:07:29;100643.06;;;9.46;60.88
74329;BME280;62749;51.982;5.916;2023-04-15T01:09:59;100645.53;;;9.49;61.15
74329;BME280;62749;51.982;5.916;2023-04-15T01:12:31;100638.72;;;9.44;61.05
74329;BME280;62749;51.982;5.916;2023-04-15T01:15:07;100642.28;;;9.43;61.25
74329;BME280;62749;51.982;5.916;2023-04-15T01:17:38;100649.28;;;9.44;61.37
74329;BME280;62749;51.982;5.916;2023-04-15T01:20:08;100655.44;;;9.44;61.70
74329;BME280;62749;51.982;5.916;2023-04-15T01:22:38;100654.44;;;9.47;61.72
74329;BME280;62749;51.982;5.916;2023-04-15T01:25:11;100656.28;;;9.45;61.79
74329;BME280;62749;51.982;5.916;2023-04-15T01:27:43;100651.38;;;9.35;62.28
74329;BME280;62749;51.982;5.916;2023-04-15T01:30:13;100644.38;;;9.34;62.42
74329;BME280;62749;51.982;5.916;2023-04-15T01:32:42;100655.47;;;9.43;62.43
74329;BME280;62749;51.982;5.916;2023-04-15T01:35:12;100649.28;;;9.44;62.42
74329;BME280;62749;51.982;5.916;2023-04-15T01:37:42;100633.75;;;9.36;62.41
74329;BME280;62749;51.982;5.916;2023-04-15T01:40:12;100646.22;;;9.32;62.98
74329;BME280;62749;51.982;5.916;2023-04-15T01:42:44;100634.13;;;9.27;62.69
74329;BME280;62749;51.982;5.916;2023-04-15T01:45:14;100646.84;;;9.39;63.09
74329;BME280;62749;51.982;5.916;2023-04-15T01:47:43;100640.13;;;9.30;63.01
74329;BME280;62749;51.982;5.916;2023-04-15T01:50:13;100648.56;;;9.40;62.82
74329;BME280;62749;51.982;5.916;2023-04-15T01:52:42;100653.94;;;9.37;62.85
74329;BME280;62749;51.982;5.916;2023-04-15T01:55:12;100663.88;;;9.30;63.31
74329;BME280;62749;51.982;5.916;2023-04-15T01:57:44;100647.28;;;9.28;63.21
74329;BME280;62749;51.982;5.916;2023-04-15T02:00:14;100652.34;;;9.33;63.52
74329;BME280;62749;51.982;5.916;2023-04-15T02:02:43;100649.00;;;9.29;63.30
74329;BME280;62749;51.982;5.916;2023-04-15T02:05:13;100651.63;;;9.29;63.44
74329;BME280;62749;51.982;5.916;2023-04-15T02:07:42;100655.47;;;9.20;63.54
74329;BME280;62749;51.982;5.916;2023-04-15T02:10:12;100646.28;;;9.31;63.75
74329;BME280;62749;51.982;5.916;2023-04-15T02:12:44;100657.38;;;9.39;63.69
74329;BME280;62749;51.982;5.916;2023-04-15T02:15:14;100659.53;;;9.29;63.26
74329;BME280;62749;51.982;5.916;2023-04-15T02:17:43;100661.78;;;9.16;63.87
74329;BME280;62749;51.982;5.916;2023-04-15T02:20:17;100662.50;;;9.20;63.87
74329;BME280;62749;51.982;5.916;2023-04-15T02:22:47;100664.22;;;9.21;64.45
74329;BME280;62749;51.982;5.916;2023-04-15T02:25:16;100667.72;;;9.21;64.37
74329;BME280;62749;51.982;5.916;2023-04-15T02:27:49;100660.03;;;9.15;64.17
74329;BME280;62749;51.982;5.916;2023-04-15T02:30:18;100667.94;;;9.15;64.51
74329;BME280;62749;51.982;5.916;2023-04-15T02:32:49;100673.34;;;9.12;64.63
74329;BME280;62749;51.982;5.916;2023-04-15T02:35:18;100670.38;;;9.21;64.54
74329;BME280;62749;51.982;5.916;2023-04-15T02:37:48;100667.72;;;9.21;64.59
74329;BME280;62749;51.982;5.916;2023-04-15T02:40:18;100676.88;;;9.11;64.48
74329;BME280;62749;51.982;5.916;2023-04-15T02:42:50;100668.19;;;9.09;64.88
74329;BME280;62749;51.982;5.916;2023-04-15T02:45:19;100678.69;;;9.11;64.73
74329;BME280;62749;51.982;5.916;2023-04-15T02:47:51;100694.38;;;9.14;64.76
74329;BME280;62749;51.982;5.916;2023-04-15T02:50:20;100671.75;;;9.08;64.99
74329;BME280;62749;51.982;5.916;2023-04-15T02:52:51;100685.94;;;9.04;64.67
74329;BME280;62749;51.982;5.916;2023-04-15T02:55:20;100686.22;;;8.96;65.07
74329;BME280;62749;51.982;5.916;2023-04-15T02:57:52;100690.66;;;8.96;65.57
74329;BME280;62749;51.982;5.916;2023-04-15T03:00:22;100675.16;;;8.86;65.62
74329;BME280;62749;51.982;5.916;2023-04-15T03:02:57;100686.94;;;9.01;65.69
74329;BME280;62749;51.982;5.916;2023-04-15T03:05:27;100679.41;;;8.90;65.74
74329;BME280;62749;51.982;5.916;2023-04-15T03:07:56;100693.13;;;8.75;66.26
74329;BME280;62749;51.982;5.916;2023-04-15T03:10:26;100687.66;;;8.81;66.49
74329;BME280;62749;51.982;5.916;2023-04-15T03:12:58;100686.97;;;8.76;66.45
74329;BME280;62749;51.982;5.916;2023-04-15T03:15:27;100683.34;;;8.79;66.58
74329;BME280;62749;51.982;5.916;2023-04-15T03:17:57;100685.03;;;8.81;66.87
74329;BME280;62749;51.982;5.916;2023-04-15T03:20:26;100698.25;;;8.80;67.09
74329;BME280;62749;51.982;5.916;2023-04-15T03:22:56;100696.81;;;8.71;67.30
74329;BME280;62749;51.982;5.916;2023-04-15T03:25:26;100701.38;;;8.66;67.43
74329;BME280;62749;51.982;5.916;2023-04-15T03:27:58;100701.47;;;8.63;67.75
74329;BME280;62749;51.982;5.916;2023-04-15T03:30:28;100702.56;;;8.57;68.06
74329;BME280;62749;51.982;5.916;2023-04-15T03:32:57;100702.63;;;8.55;68.02
74329;BME280;62749;51.982;5.916;2023-04-15T03:35:27;100700.81;;;8.57;68.01
74329;BME280;62749;51.982;5.916;2023-04-15T03:37:56;100708.69;;;8.57;68.15
74329;BME280;62749;51.982;5.916;2023-04-15T03:40:25;100711.44;;;8.54;68.38
74329;BME280;62749;51.982;5.916;2023-04-15T03:42:57;100711.19;;;8.60;68.12
74329;BME280;62749;51.982;5.916;2023-04-15T03:45:27;100721.63;;;8.64;68.46
74329;BME280;62749;51.982;5.916;2023-04-15T03:47:56;100722.78;;;8.56;68.72
74329;BME280;62749;51.982;5.916;2023-04-15T03:50:26;100716.47;;;8.60;68.42
74329;BME280;62749;51.982;5.916;2023-04-15T03:52:55;100714.22;;;8.50;68.88
74329;BME280;62749;51.982;5.916;2023-04-15T03:55:25;100717.69;;;8.52;69.10
74329;BME280;62749;51.982;5.916;2023-04-15T03:58:11;100712.41;;;8.52;68.59
74329;BME280;62749;51.982;5.916;2023-04-15T04:00:40;100712.91;;;8.36;68.77
74329;BME280;62749;51.982;5.916;2023-04-15T04:03:10;100724.75;;;8.23;69.52
74329;BME280;62749;51.982;5.916;2023-04-15T04:05:39;100727.53;;;8.18;69.75
74329;BME280;62749;51.982;5.916;2023-04-15T04:08:09;100729.25;;;8.19;69.99
74329;BME280;62749;51.982;5.916;2023-04-15T04:10:39;100734.41;;;8.22;70.07
74329;BME280;62749;51.982;5.916;2023-04-15T04:13:11;100735.28;;;8.23;70.02
74329;BME280;62749;51.982;5.916;2023-04-15T04:15:40;100739.50;;;8.27;70.24
74329;BME280;62749;51.982;5.916;2023-04-15T04:18:10;100737.50;;;8.35;69.66
74329;BME280;62749;51.982;5.916;2023-04-15T04:20:39;100742.59;;;8.40;69.53
74329;BME280;62749;51.982;5.916;2023-04-15T04:23:09;100751.81;;;8.26;69.98
74329;BME280;62749;51.982;5.916;2023-04-15T04:25:38;100754.50;;;8.25;70.10
74329;BME280;62749;51.982;5.916;2023-04-15T04:28:11;100749.44;;;8.19;69.90
74329;BME280;62749;51.982;5.916;2023-04-15T04:30:40;100763.09;;;8.30;70.60
74329;BME280;62749;51.982;5.916;2023-04-15T04:33:10;100765.63;;;8.33;69.87
74329;BME280;62749;51.982;5.916;2023-04-15T04:35:39;100767.47;;;8.31;70.21
74329;BME280;62749;51.982;5.916;2023-04-15T04:38:09;100768.72;;;8.19;70.34
74329;BME280;62749;51.982;5.916;2023-04-15T04:40:38;100773.72;;;8.27;70.45
74329;BME280;62749;51.982;5.916;2023-04-15T04:43:08;100774.75;;;8.23;70.68
74329;BME280;62749;51.982;5.916;2023-04-15T04:45:40;100777.28;;;8.26;70.40
74329;BME280;62749;51.982;5.916;2023-04-15T04:48:09;100779.25;;;8.19;70.69
74329;BME280;62749;51.982;5.916;2023-04-15T04:50:39;100779.63;;;8.07;71.16
74329;BME280;62749;51.982;5.916;2023-04-15T04:53:08;100784.19;;;8.02;70.70
74329;BME280;62749;51.982;5.916;2023-04-15T04:55:38;100790.28;;;8.02;71.33
74329;BME280;62749;51.982;5.916;2023-04-15T04:58:07;100792.00;;;8.05;71.16
74329;BME280;62749;51.982;5.916;2023-04-15T05:00:39;100798.19;;;8.02;71.35
74329;BME280;62749;51.982;5.916;2023-04-15T05:03:09;100793.91;;;7.99;71.50
74329;BME280;62749;51.982;5.916;2023-04-15T05:05:38;100812.75;;;7.86;72.16
74329;BME280;62749;51.982;5.916;2023-04-15T05:08:08;100808.41;;;7.83;72.49
74329;BME280;62749;51.982;5.916;2023-04-15T05:10:37;100806.59;;;7.87;72.46
74329;BME280;62749;51.982;5.916;2023-04-15T05:13:07;100805.75;;;7.85;72.54
74329;BME280;62749;51.982;5.916;2023-04-15T05:15:36;100817.03;;;7.88;72.66
74329;BME280;62749;51.982;5.916;2023-04-15T05:18:09;100819.44;;;7.96;72.69
74329;BME280;62749;51.982;5.916;2023-04-15T05:20:38;100822.00;;;7.97;72.73
74329;BME280;62749;51.982;5.916;2023-04-15T05:23:08;100831.69;;;7.97;72.64
74329;BME280;62749;51.982;5.916;2023-04-15T05:25:37;100832.75;;;7.91;72.83
74329;BME280;62749;51.982;5.916;2023-04-15T05:28:07;100836.91;;;7.98;72.87
74329;BME280;62749;51.982;5.916;2023-04-15T05:30:37;100836.00;;;7.99;73.17
74329;BME280;62749;51.982;5.916;2023-04-15T05:33:10;100847.09;;;8.09;73.35
74329;BME280;62749;51.982;5.916;2023-04-15T05:35:39;100847.03;;;8.11;73.08
74329;BME280;62749;51.982;5.916;2023-04-15T05:38:09;100848.00;;;8.08;73.45
74329;BME280;62749;51.982;5.916;2023-04-15T05:40:38;100849.59;;;8.14;73.64
74329;BME280;62749;51.982;5.916;2023-04-15T05:43:08;100853.66;;;8.24;73.45
74329;BME280;62749;51.982;5.916;2023-04-15T05:45:37;100857.81;;;8.32;73.43
74329;BME280;62749;51.982;5.916;2023-04-15T05:48:09;100860.41;;;8.33;73.43
74329;BME280;62749;51.982;5.916;2023-04-15T05:50:48;100859.53;;;8.33;73.26
74329;BME280;62749;51.982;5.916;2023-04-15T05:53:17;100870.34;;;8.23;73.38
74329;BME280;62749;51.982;5.916;2023-04-15T05:55:47;100865.84;;;8.27;73.99
74329;BME280;62749;51.982;5.916;2023-04-15T05:58:17;100870.53;;;8.45;73.55
74329;BME280;62749;51.982;5.916;2023-04-15T06:00:46;100862.34;;;8.56;72.97
74329;BME280;62749;51.982;5.916;2023-04-15T06:03:18;100864.72;;;8.64;73.11
74329;BME280;62749;51.982;5.916;2023-04-15T06:05:48;100873.22;;;8.72;72.91
74329;BME280;62749;51.982;5.916;2023-04-15T06:08:17;100874.03;;;8.74;72.83
74329;BME280;62749;51.982;5.916;2023-04-15T06:10:47;100882.53;;;8.83;72.50
74329;BME280;62749;51.982;5.916;2023-04-15T06:13:17;100889.19;;;8.95;72.25
74329;BME280;62749;51.982;5.916;2023-04-15T06:15:47;100896.84;;;9.02;72.64
74329;BME280;62749;51.982;5.916;2023-04-15T06:18:19;100897.50;;;9.08;71.98
74329;BME280;62749;51.982;5.916;2023-04-15T06:20:49;100901.78;;;9.12;72.08
74329;BME280;62749;51.982;5.916;2023-04-15T06:23:18;100910.44;;;9.15;72.14
74329;BME280;62749;51.982;5.916;2023-04-15T06:25:48;100909.38;;;9.21;71.88
74329;BME280;62749;51.982;5.916;2023-04-15T06:28:18;100909.94;;;9.04;72.17
74329;BME280;62749;51.982;5.916;2023-04-15T06:30:47;100917.75;;;9.07;72.44
74329;BME280;62749;51.982;5.916;2023-04-15T06:33:19;100919.97;;;8.93;72.39
74329;BME280;62749;51.982;5.916;2023-04-15T06:35:49;100920.59;;;9.01;72.74
74329;BME280;62749;51.982;5.916;2023-04-15T06:38:18;100920.81;;;8.95;72.03
74329;BME280;62749;51.982;5.916;2023-04-15T06:40:48;100928.91;;;8.88;71.86
74329;BME280;62749;51.982;5.916;2023-04-15T06:43:18;100931.44;;;8.92;71.55
74329;BME280;62749;51.982;5.916;2023-04-15T06:45:47;100929.53;;;8.97;70.98
74329;BME280;62749;51.982;5.916;2023-04-15T06:48:19;100947.75;;;9.03;71.10
74329;BME280;62749;51.982;5.916;2023-04-15T06:50:49;100949.16;;;8.86;70.61
74329;BME280;62749;51.982;5.916;2023-04-15T06:53:18;100953.81;;;8.78;71.30
74329;BME280;62749;51.982;5.916;2023-04-15T06:55:48;100952.47;;;8.65;71.54
74329;BME280;62749;51.982;5.916;2023-04-15T06:58:17;100967.66;;;8.85;71.52
74329;BME280;62749;51.982;5.916;2023-04-15T07:00:47;100959.59;;;8.89;71.23
74329;BME280;62749;51.982;5.916;2023-04-15T07:03:20;100966.69;;;8.87;70.94
74329;BME280;62749;51.982;5.916;2023-04-15T07:05:49;100965.88;;;8.85;71.38
74329;BME280;62749;51.982;5.916;2023-04-15T07:08:19;100969.47;;;8.83;71.18
74329;BME280;62749;51.982;5.916;2023-04-15T07:10:49;100980.09;;;8.80;71.32
74329;BME280;62749;51.982;5.916;2023-04-15T07:13:19;100980.97;;;8.80;71.28
74329;BME280;62749;51.982;5.916;2023-04-15T07:15:48;100986.25;;;8.80;70.68
74329;BME280;62749;51.982;5.916;2023-04-15T07:18:20;100987.75;;;8.87;71.39
74329;BME280;62749;51.982;5.916;2023-04-15T07:20:50;100992.22;;;8.85;71.02
74329;BME280;62749;51.982;5.916;2023-04-15T07:23:19;100992.03;;;8.92;71.03
74329;BME280;62749;51.982;5.916;2023-04-15T07:25:49;100992.13;;;8.88;71.07
74329;BME280;62749;51.982;5.916;2023-04-15T07:28:19;101001.56;;;8.96;71.29
74329;BME280;62749;51.982;5.916;2023-04-15T07:30:48;100997.22;;;8.95;70.80
74329;BME280;62749;51.982;5.916;2023-04-15T07:33:20;101006.84;;;8.96;70.98
74329;BME280;62749;51.982;5.916;2023-04-15T07:35:50;101007.94;;;8.88;71.17
74329;BME280;62749;51.982;5.916;2023-04-15T07:38:19;101010.09;;;9.04;71.08
74329;BME280;62749;51.982;5.916;2023-04-15T07:40:49;101019.38;;;9.16;70.73
74329;BME280;62749;51.982;5.916;2023-04-15T07:43:19;101020.03;;;9.23;70.97
74329;BME280;62749;51.982;5.916;2023-04-15T07:46:03;101019.75;;;9.32;70.32
74329;BME280;62749;51.982;5.916;2023-04-15T07:48:36;101023.03;;;9.39;69.91
74329;BME280;62749;51.982;5.916;2023-04-15T07:51:06;101013.34;;;9.39;69.71
74329;BME280;62749;51.982;5.916;2023-04-15T07:53:36;101024.50;;;9.47;69.42
74329;BME280;62749;51.982;5.916;2023-04-15T07:56:06;101020.88;;;9.50;69.61
74329;BME280;62749;51.982;5.916;2023-04-15T07:58:35;101017.44;;;9.48;69.49
74329;BME280;62749;51.982;5.916;2023-04-15T08:01:05;101014.31;;;9.62;69.20
74329;BME280;62749;51.982;5.916;2023-04-15T08:03:37;101030.22;;;9.60;68.38
74329;BME280;62749;51.982;5.916;2023-04-15T08:06:07;101031.66;;;9.69;68.34
74329;BME280;62749;51.982;5.916;2023-04-15T08:08:37;101032.59;;;9.93;68.17
74329;BME280;62749;51.982;5.916;2023-04-15T08:11:07;101038.09;;;10.12;67.58
74329;BME280;62749;51.982;5.916;2023-04-15T08:13:37;101040.41;;;10.20;66.68
74329;BME280;62749;51.982;5.916;2023-04-15T08:16:18;101048.97;;;10.27;66.01
74329;BME280;62749;51.982;5.916;2023-04-15T08:18:53;101043.97;;;10.44;65.18
74329;BME280;62749;51.982;5.916;2023-04-15T08:21:23;101049.50;;;10.38;64.47
74329;BME280;62749;51.982;5.916;2023-04-15T08:23:53;101046.47;;;10.24;64.35
74329;BME280;62749;51.982;5.916;2023-04-15T08:26:22;101046.94;;;10.35;64.73
74329;BME280;62749;51.982;5.916;2023-04-15T08:28:52;101046.63;;;10.44;64.02
74329;BME280;62749;51.982;5.916;2023-04-15T08:31:21;101047.66;;;10.64;64.09
74329;BME280;62749;51.982;5.916;2023-04-15T08:33:54;101056.06;;;10.74;62.89
74329;BME280;62749;51.982;5.916;2023-04-15T08:36:24;101058.91;;;10.69;62.52
74329;BME280;62749;51.982;5.916;2023-04-15T08:38:54;101057.13;;;10.70;62.67
74329;BME280;62749;51.982;5.916;2023-04-15T08:41:25;101067.28;;;10.81;62.69
74329;BME280;62749;51.982;5.916;2023-04-15T08:43:58;101067.63;;;10.71;62.70
74329;BME280;62749;51.982;5.916;2023-04-15T08:46:30;101066.56;;;10.53;62.86
74329;BME280;62749;51.982;5.916;2023-04-15T08:49:04;101077.03;;;10.79;62.89
74329;BME280;62749;51.982;5.916;2023-04-15T08:51:34;101083.75;;;10.87;62.84
74329;BME280;62749;51.982;5.916;2023-04-15T08:54:04;101082.78;;;10.90;62.59
74329;BME280;62749;51.982;5.916;2023-04-15T08:56:35;101082.72;;;10.92;62.87
74329;BME280;62749;51.982;5.916;2023-04-15T08:59:05;101089.47;;;10.77;62.59
74329;BME280;62749;51.982;5.916;2023-04-15T09:01:38;101085.59;;;10.85;63.22
74329;BME280;62749;51.982;5.916;2023-04-15T09:04:10;101088.75;;;10.95;62.81
74329;BME280;62749;51.982;5.916;2023-04-15T09:06:40;101101.09;;;11.17;62.30
74329;BME280;62749;51.982;5.916;2023-04-15T09:09:11;101098.44;;;11.18;62.76
74329;BME280;62749;51.982;5.916;2023-04-15T09:11:41;101103.44;;;11.25;62.66
74329;BME280;62749;51.982;5.916;2023-04-15T09:14:12;101108.75;;;11.25;61.94
74329;BME280;62749;51.982;5.916;2023-04-15T09:16:58;101106.91;;;11.27;61.56
74329;BME280;62749;51.982;5.916;2023-04-15T09:19:31;101106.16;;;11.23;61.76
74329;BME280;62749;51.982;5.916;2023-04-15T09:22:01;101110.84;;;11.16;62.20
74329;BME280;62749;51.982;5.916;2023-04-15T09:24:36;101118.28;;;11.51;61.95
74329;BME280;62749;51.982;5.916;2023-04-15T09:27:09;101116.97;;;11.61;61.49
74329;BME280;62749;51.982;5.916;2023-04-15T09:29:40;101121.59;;;11.56;61.48
74329;BME280;62749;51.982;5.916;2023-04-15T09:32:11;101126.88;;;11.78;62.53
74329;BME280;62749;51.982;5.916;2023-04-15T09:34:44;101120.84;;;11.95;60.94
74329;BME280;62749;51.982;5.916;2023-04-15T09:37:13;101125.59;;;12.09;60.99
74329;BME280;62749;51.982;5.916;2023-04-15T09:42:17;101133.56;;;12.09;60.68
74329;BME280;62749;51.982;5.916;2023-04-15T09:44:50;101131.56;;;12.35;61.06
74329;BME280;62749;51.982;5.916;2023-04-15T09:47:27;101135.09;;;12.55;60.05
74329;BME280;62749;51.982;5.916;2023-04-15T09:50:00;101128.03;;;12.55;59.02
74329;BME280;62749;51.982;5.916;2023-04-15T09:52:30;101138.13;;;12.66;59.06
74329;BME280;62749;51.982;5.916;2023-04-15T09:54:59;101143.88;;;12.76;59.27
74329;BME280;62749;51.982;5.916;2023-04-15T09:57:34;101139.59;;;12.93;58.69
74329;BME280;62749;51.982;5.916;2023-04-15T10:00:06;101150.44;;;12.67;58.06
74329;BME280;62749;51.982;5.916;2023-04-15T10:02:38;101146.66;;;12.73;57.93
74329;BME280;62749;51.982;5.916;2023-04-15T10:05:14;101140.06;;;12.63;57.88
74329;BME280;62749;51.982;5.916;2023-04-15T10:07:44;101155.34;;;12.77;56.77
74329;BME280;62749;51.982;5.916;2023-04-15T10:10:15;101155.03;;;12.64;58.05
74329;BME280;62749;51.982;5.916;2023-04-15T10:12:45;101148.66;;;12.68;58.64
74329;BME280;62749;51.982;5.916;2023-04-15T10:15:15;101149.91;;;12.99;58.38
74329;BME280;62749;51.982;5.916;2023-04-15T10:17:47;101152.84;;;13.31;57.45
74329;BME280;62749;51.982;5.916;2023-04-15T10:20:23;101160.59;;;13.55;56.39
74329;BME280;62749;51.982;5.916;2023-04-15T10:22:53;101161.56;;;13.89;55.51
74329;BME280;62749;51.982;5.916;2023-04-15T10:25:26;101164.81;;;13.76;54.84
74329;BME280;62749;51.982;5.916;2023-04-15T10:27:55;101172.31;;;13.68;55.82
74329;BME280;62749;51.982;5.916;2023-04-15T10:30:26;101169.38;;;13.36;55.84
74329;BME280;62749;51.982;5.916;2023-04-15T10:32:57;101164.94;;;13.37;55.96
74329;BME280;62749;51.982;5.916;2023-04-15T10:35:31;101152.38;;;13.03;57.08
74329;BME280;62749;51.982;5.916;2023-04-15T10:38:32;101156.78;;;13.03;56.46
74329;BME280;62749;51.982;5.916;2023-04-15T10:41:19;101175.06;;;12.90;56.15
74329;BME280;62749;51.982;5.916;2023-04-15T10:43:51;101170.69;;;12.89;56.65
74329;BME280;62749;51.982;5.916;2023-04-15T10:46:23;101166.91;;;13.14;56.22
74329;BME280;62749;51.982;5.916;2023-04-15T10:48:54;101169.41;;;13.55;55.69
74329;BME280;62749;51.982;5.916;2023-04-15T10:51:30;101179.72;;;13.61;55.75
74329;BME280;62749;51.982;5.916;2023-04-15T10:54:01;101184.59;;;13.52;56.14
74329;BME280;62749;51.982;5.916;2023-04-15T10:56:31;101186.66;;;13.46;54.87
74329;BME280;62749;51.982;5.916;2023-04-15T10:59:00;101186.75;;;13.24;56.03
74329;BME280;62749;51.982;5.916;2023-04-15T11:02:00;101192.84;;;13.07;55.14
74329;BME280;62749;51.982;5.916;2023-04-15T11:04:51;101191.06;;;13.27;55.96
74329;BME280;62749;51.982;5.916;2023-04-15T11:07:40;101187.22;;;13.71;54.92
74329;BME280;62749;51.982;5.916;2023-04-15T11:13:20;101186.66;;;14.71;52.39
74329;BME280;62749;51.982;5.916;2023-04-15T11:15:55;101180.78;;;14.47;53.08
74329;BME280;62749;51.982;5.916;2023-04-15T11:18:31;101183.00;;;14.38;52.93
74329;BME280;62749;51.982;5.916;2023-04-15T11:21:04;101188.41;;;14.19;52.88
74329;BME280;62749;51.982;5.916;2023-04-15T11:23:39;101180.81;;;14.11;53.58
74329;BME280;62749;51.982;5.916;2023-04-15T11:26:12;101192.75;;;14.20;53.69
74329;BME280;62749;51.982;5.916;2023-04-15T11:28:43;101190.50;;;14.13;51.13
74329;BME280;62749;51.982;5.916;2023-04-15T11:31:14;101193.47;;;14.24;51.13
74329;BME280;62749;51.982;5.916;2023-04-15T11:33:46;101197.47;;;14.33;51.62
74329;BME280;62749;51.982;5.916;2023-04-15T11:36:23;101201.88;;;14.67;51.70
74329;BME280;62749;51.982;5.916;2023-04-15T11:38:58;101195.13;;;15.11;51.25
74329;BME280;62749;51.982;5.916;2023-04-15T11:41:27;101200.38;;;15.13;50.25
74329;BME280;62749;51.982;5.916;2023-04-15T11:43:57;101202.88;;;15.32;49.55
74329;BME280;62749;51.982;5.916;2023-04-15T11:46:29;101213.31;;;15.19;48.72
74329;BME280;62749;51.982;5.916;2023-04-15T11:48:59;101213.13;;;14.90;48.65
74329;BME280;62749;51.982;5.916;2023-04-15T11:51:32;101214.25;;;15.18;47.28
74329;BME280;62749;51.982;5.916;2023-04-15T11:54:04;101224.03;;;15.01;48.50
74329;BME280;62749;51.982;5.916;2023-04-15T11:56:34;101225.38;;;14.93;48.86
74329;BME280;62749;51.982;5.916;2023-04-15T11:59:03;101226.69;;;15.01;48.41
74329;BME280;62749;51.982;5.916;2023-04-15T12:01:33;101227.13;;;14.94;49.00
74329;BME280;62749;51.982;5.916;2023-04-15T12:04:10;101224.31;;;15.13;48.69
74329;BME280;62749;51.982;5.916;2023-04-15T12:06:40;101231.22;;;15.49;48.65
74329;BME280;62749;51.982;5.916;2023-04-15T12:09:13;101236.28;;;15.38;48.39
74329;BME280;62749;51.982;5.916;2023-04-15T12:11:45;101224.94;;;14.84;49.09
74329;BME280;62749;51.982;5.916;2023-04-15T12:14:19;101243.16;;;14.57;50.14
74329;BME280;62749;51.982;5.916;2023-04-15T12:16:52;101245.38;;;14.49;50.65
74329;BME280;62749;51.982;5.916;2023-04-15T12:19:26;101244.81;;;15.11;49.55
74329;BME280;62749;51.982;5.916;2023-04-15T12:22:00;101242.88;;;15.30;49.07
74329;BME280;62749;51.982;5.916;2023-04-15T12:24:35;101241.59;;;15.38;49.39
74329;BME280;62749;51.982;5.916;2023-04-15T12:27:06;101245.13;;;15.54;48.91
74329;BME280;62749;51.982;5.916;2023-04-15T12:29:37;101249.84;;;15.49;48.52
74329;BME280;62749;51.982;5.916;2023-04-15T12:32:08;101260.44;;;15.67;47.91
74329;BME280;62749;51.982;5.916;2023-04-15T12:34:40;101266.13;;;14.93;48.06
74329;BME280;62749;51.982;5.916;2023-04-15T12:37:11;101263.84;;;15.03;48.15
74329;BME280;62749;51.982;5.916;2023-04-15T12:39:46;101263.16;;;15.49;48.19
74329;BME280;62749;51.982;5.916;2023-04-15T12:42:17;101250.28;;;15.73;47.36
74329;BME280;62749;51.982;5.916;2023-04-15T12:44:48;101268.31;;;15.52;47.69
74329;BME280;62749;51.982;5.916;2023-04-15T12:47:17;101269.31;;;15.33;48.50
74329;BME280;62749;51.982;5.916;2023-04-15T12:49:46;101271.84;;;15.03;50.04
74329;BME280;62749;51.982;5.916;2023-04-15T12:52:16;101276.38;;;15.01;50.23
74329;BME280;62749;51.982;5.916;2023-04-15T12:54:48;101280.22;;;14.95;49.78
74329;BME280;62749;51.982;5.916;2023-04-15T12:57:19;101277.28;;;14.84;51.01
74329;BME280;62749;51.982;5.916;2023-04-15T12:59:48;101272.75;;;15.19;50.16
74329;BME280;62749;51.982;5.916;2023-04-15T13:02:17;101288.44;;;15.08;48.47
74329;BME280;62749;51.982;5.916;2023-04-15T13:04:50;101286.53;;;14.77;49.80
74329;BME280;62749;51.982;5.916;2023-04-15T13:07:20;101295.16;;;14.63;50.72
74329;BME280;62749;51.982;5.916;2023-04-15T13:09:52;101298.41;;;14.69;50.76
74329;BME280;62749;51.982;5.916;2023-04-15T13:12:22;101289.69;;;15.01;49.85
74329;BME280;62749;51.982;5.916;2023-04-15T13:14:51;101303.66;;;15.04;49.54
74329;BME280;62749;51.982;5.916;2023-04-15T13:17:21;101301.59;;;14.94;49.71
74329;BME280;62749;51.982;5.916;2023-04-15T13:19:50;101303.75;;;15.03;49.96
74329;BME280;62749;51.982;5.916;2023-04-15T13:22:20;101299.84;;;15.10;49.60